Time;durP1;ratioP1;P1;durP2;ratioP2;P2;SDS_P1;SDS_P2;PMS_P1;PMS_P2;Temp;Humidity;BMP_temperature;BMP_pressure;BME280_temperature;BME280_humidity;BME280_pressure;Samples;Min_cycle;Max_cycle;Signal;HPM_P1;HPM_P2
2022/08/12 00:43:35;;;;;;;0.80;0.40;;;;;;;14.21;100.00;100443.94;7389442;19;20082;-84
2022/08/12 00:48:47;;;;;;;0.38;0.28;;;;;;;14.19;100.00;100452.06;7392932;19;20019;-84
2022/08/12 00:51:14;;;;;;;0.88;0.50;;;;;;;14.17;100.00;100444.16;7389653;19;20361;-84
2022/08/12 00:53:40;;;;;;;0.30;0.30;;;;;;;14.15;100.00;100446.69;7388912;19;20042;-84
2022/08/12 00:56:06;;;;;;;1.02;0.65;;;;;;;14.12;100.00;100450.44;7389444;19;20011;-83
2022/08/12 00:58:33;;;;;;;0.95;0.40;;;;;;;14.10;100.00;100438.94;7389534;19;20014;-84
2022/08/12 01:01:08;;;;;;;4.03;0.75;;;;;;;14.07;100.00;100436.38;7389987;19;20077;-84
2022/08/12 01:11:55;;;;;;;1.85;0.80;;;;;;;14.01;100.00;100441.09;7391211;19;20026;-83
2022/08/12 01:14:23;;;;;;;1.10;0.60;;;;;;;13.98;100.00;100440.03;7389844;19;20014;-84
2022/08/12 01:16:54;;;;;;;1.65;0.57;;;;;;;13.93;100.00;100443.53;7389332;19;20010;-84
2022/08/12 01:19:22;;;;;;;0.50;0.40;;;;;;;13.87;100.00;100436.28;7393905;19;20023;-84
2022/08/12 01:22:01;;;;;;;3.30;0.50;;;;;;;13.84;100.00;100438.03;7390632;19;20047;-83
2022/08/12 01:24:55;;;;;;;2.08;0.40;;;;;;;13.85;100.00;100433.19;7389695;19;20018;-84
2022/08/12 01:27:23;;;;;;;0.32;0.32;;;;;;;13.84;100.00;100431.66;7391400;19;20508;-83
2022/08/12 01:29:52;;;;;;;1.58;0.68;;;;;;;13.82;100.00;100428.59;7393716;19;20370;-83
2022/08/12 01:32:20;;;;;;;0.45;0.30;;;;;;;13.76;100.00;100430.50;7388984;19;20019;-84
2022/08/12 01:35:00;;;;;;;0.40;0.20;;;;;;;13.78;100.00;100433.59;7391506;19;20027;-86
2022/08/12 01:37:29;;;;;;;1.95;0.43;;;;;;;13.80;100.00;100436.66;7390690;19;20014;-84
2022/08/12 01:39:59;;;;;;;2.92;0.50;;;;;;;13.79;100.00;100432.34;7394956;19;20022;-89
2022/08/12 01:42:30;;;;;;;1.60;0.60;;;;;;;13.75;100.00;100428.97;7389351;19;20010;-89
2022/08/12 01:44:57;;;;;;;1.77;0.38;;;;;;;13.72;100.00;100425.09;7391882;19;20014;-88
2022/08/12 01:48:00;;;;;;;0.88;0.52;;;;;;;13.66;100.00;100416.59;7391581;19;20098;-88
2022/08/12 01:51:12;;;;;;;0.20;0.20;;;;;;;13.62;100.00;100409.66;7389840;19;20014;-88
2022/08/12 01:53:59;;;;;;;0.82;0.82;;;;;;;13.60;100.00;100426.94;7391244;19;20019;-88
2022/08/12 01:56:31;;;;;;;1.20;0.93;;;;;;;13.58;100.00;100426.63;7392087;19;20015;-88
2022/08/12 02:01:51;;;;;;;3.95;1.38;;;;;;;13.50;100.00;100419.13;7391859;19;20025;-85
2022/08/12 02:13:50;;;;;;;;;;;;;;;13.40;100.00;100417.66;7392423;19;20247;-85
2022/08/12 02:16:30;;;;;;;1.02;0.65;;;;;;;13.38;100.00;100412.53;7391620;19;19929;-84
2022/08/12 02:19:02;;;;;;;2.08;0.73;;;;;;;13.36;100.00;100403.09;7398083;19;20351;-85
2022/08/12 02:21:45;;;;;;;0.30;0.30;;;;;;;13.34;100.00;100411.97;7399333;19;20026;-85
2022/08/12 02:24:17;;;;;;;1.55;0.47;;;;;;;13.31;100.00;100415.72;7398518;19;20026;-85
2022/08/12 02:26:46;;;;;;;1.67;0.65;;;;;;;13.27;100.00;100405.97;7398631;19;20014;-84
2022/08/12 02:29:13;;;;;;;0.85;0.63;;;;;;;13.26;100.00;100410.78;7398095;19;20023;-86
2022/08/12 02:31:42;;;;;;;1.17;0.75;;;;;;;13.25;100.00;100406.47;7395678;19;20027;-84
2022/08/12 02:34:11;;;;;;;0.90;0.35;;;;;;;13.23;100.00;100394.97;7397459;19;20038;-86
2022/08/12 02:36:38;;;;;;;0.50;0.50;;;;;;;13.21;100.00;100397.47;7392570;19;20011;-85
2022/08/12 02:39:12;;;;;;;0.73;0.38;;;;;;;13.19;100.00;100399.22;7397646;19;20018;-84
2022/08/12 02:41:42;;;;;;;2.08;0.45;;;;;;;13.18;100.00;100398.44;7398239;19;20019;-85
2022/08/12 02:44:14;;;;;;;0.52;0.52;;;;;;;13.19;100.00;100390.84;7397659;19;20094;-84
2022/08/12 02:46:42;;;;;;;1.85;0.68;;;;;;;13.13;100.00;100392.75;7398285;19;20010;-86
2022/08/12 02:49:18;;;;;;;0.32;0.32;;;;;;;13.10;100.00;100385.31;7397074;19;20042;-85
2022/08/12 02:51:44;;;;;;;0.15;0.15;;;;;;;13.06;100.00;100384.75;7393779;19;20011;-85
2022/08/12 02:54:11;;;;;;;2.90;0.52;;;;;;;13.03;100.00;100396.84;7394353;19;20018;-86
2022/08/12 02:56:40;;;;;;;0.80;0.30;;;;;;;12.98;100.00;100392.69;7393142;19;20085;-84
2022/08/12 02:59:15;;;;;;;0.85;0.80;;;;;;;13.01;100.00;100396.56;7397280;19;20030;-84
2022/08/12 03:01:52;;;;;;;0.40;0.40;;;;;;;12.98;100.00;100395.47;7397813;19;20035;-84
2022/08/12 03:04:29;;;;;;;0.30;0.30;;;;;;;12.94;100.00;100383.72;7399664;19;20042;-85
2022/08/12 03:07:08;;;;;;;0.65;0.63;;;;;;;12.91;100.00;100385.44;7396353;19;20010;-86
2022/08/12 03:09:44;;;;;;;0.90;0.30;;;;;;;12.87;100.00;100389.66;7397694;19;20021;-86
2022/08/12 03:12:12;;;;;;;1.25;0.70;;;;;;;12.86;100.00;100388.16;7393461;19;20035;-86
2022/08/12 03:14:42;;;;;;;0.75;0.35;;;;;;;12.86;100.00;100393.75;7394993;19;20094;-86
2022/08/12 03:17:29;;;;;;;0.43;0.30;;;;;;;12.84;100.00;100385.81;7395176;19;20010;-86
2022/08/12 03:19:56;;;;;;;1.20;0.50;;;;;;;12.85;100.00;100386.59;7397701;19;20014;-85
2022/08/12 03:22:23;;;;;;;4.78;0.93;;;;;;;12.90;100.00;100394.31;7396957;19;20045;-86
2022/08/12 03:24:49;;;;;;;1.08;0.60;;;;;;;12.90;100.00;100391.53;7397215;19;20014;-86
2022/08/12 03:27:16;;;;;;;0.88;0.50;;;;;;;12.86;100.00;100396.53;7396541;19;20011;-86
2022/08/12 03:29:49;;;;;;;1.38;1.10;;;;;;;12.83;100.00;100384.28;7394366;19;20018;-86
2022/08/12 03:32:18;;;;;;;1.13;0.55;;;;;;;12.78;100.00;100386.94;7392548;19;20461;-85
2022/08/12 03:34:49;;;;;;;2.30;0.40;;;;;;;12.71;100.00;100382.50;7395327;19;20014;-85
2022/08/12 03:37:19;;;;;;;1.95;0.50;;;;;;;12.68;100.00;100377.09;7395082;19;20115;-86
2022/08/12 03:39:45;;;;;;;0.93;0.60;;;;;;;12.65;100.00;100373.22;7398687;19;20015;-86
2022/08/12 03:42:20;;;;;;;0.25;0.25;;;;;;;12.60;100.00;100381.50;7396471;19;20035;-85
2022/08/12 04:01:54;;;;;;;3.42;1.20;;;;;;;12.51;100.00;100389.94;7396808;19;20078;-86
2022/08/12 04:04:44;;;;;;;1.73;0.85;;;;;;;12.44;100.00;100384.72;7396550;19;20025;-86
2022/08/12 04:07:11;;;;;;;2.45;0.88;;;;;;;12.38;100.00;100386.63;7395679;19;20082;-86
2022/08/12 04:09:39;;;;;;;1.08;0.75;;;;;;;12.35;100.00;100384.75;7396462;19;20017;-86
2022/08/12 04:14:53;;;;;;;0.50;0.50;;;;;;;12.28;100.00;100387.94;7391797;19;20017;-85
2022/08/12 04:17:20;;;;;;;0.75;0.40;;;;;;;12.30;100.00;100386.19;7394159;19;20074;-86
2022/08/12 04:19:47;;;;;;;2.38;0.85;;;;;;;12.30;100.00;100383.38;7397087;19;20341;-85
2022/08/12 04:22:14;;;;;;;0.45;0.45;;;;;;;12.33;100.00;100385.25;7394399;19;20014;-86
2022/08/12 04:24:43;;;;;;;0.47;0.47;;;;;;;12.34;100.00;100384.00;7393446;19;20015;-86
2022/08/12 04:27:10;;;;;;;1.30;0.93;;;;;;;12.34;100.00;100386.81;7394573;19;20022;-86
2022/08/12 04:29:38;;;;;;;8.38;1.33;;;;;;;12.35;100.00;100381.97;7395495;19;20089;-86
2022/08/12 04:32:05;;;;;;;1.20;0.70;;;;;;;12.40;100.00;100387.69;7390893;19;20017;-86
2022/08/12 04:34:32;;;;;;;4.78;1.00;;;;;;;12.41;100.00;100392.00;7394950;19;20041;-86
2022/08/12 04:36:58;;;;;;;0.20;0.20;;;;;;;12.42;100.00;100393.56;7393414;19;20010;-86
2022/08/12 04:39:25;;;;;;;1.38;0.60;;;;;;;12.42;100.00;100387.22;7395329;19;20444;-86
2022/08/12 04:41:51;;;;;;;1.35;0.93;;;;;;;12.42;100.00;100395.59;7393603;19;20015;-87
2022/08/12 04:44:18;;;;;;;0.63;0.57;;;;;;;12.41;100.00;100385.69;7392680;19;20062;-86
2022/08/12 04:46:44;;;;;;;2.00;0.82;;;;;;;12.38;100.00;100397.78;7393055;19;20038;-86
2022/08/12 04:49:10;;;;;;;0.98;0.50;;;;;;;12.37;100.00;100394.22;7394843;19;20111;-88
2022/08/12 04:51:36;;;;;;;2.85;0.60;;;;;;;12.34;100.00;100391.63;7392995;19;20477;-87
2022/08/12 04:54:03;;;;;;;0.50;0.43;;;;;;;12.36;100.00;100395.47;7392890;19;20086;-88
2022/08/12 04:56:31;;;;;;;7.47;0.43;;;;;;;12.32;100.00;100394.88;7391099;19;20514;-88
2022/08/12 04:58:58;;;;;;;3.13;0.75;;;;;;;12.31;100.00;100392.56;7393293;19;20031;-91
2022/08/12 05:01:31;;;;;;;1.50;0.65;;;;;;;12.29;100.00;100389.47;7394543;19;20014;-90
2022/08/12 05:03:58;;;;;;;0.10;0.10;;;;;;;12.24;100.00;100387.31;7396421;19;20023;-91
2022/08/12 05:06:25;;;;;;;2.70;0.77;;;;;;;12.21;100.00;100388.28;7392715;19;20487;-90
2022/08/12 05:08:56;;;;;;;0.80;0.65;;;;;;;12.21;100.00;100388.28;7394226;19;20010;-91
2022/08/12 05:11:23;;;;;;;0.85;0.40;;;;;;;12.17;100.00;100394.78;7393340;19;20021;-91
2022/08/12 05:13:55;;;;;;;0.82;0.45;;;;;;;12.19;100.00;100391.53;7391513;19;20015;-90
2022/08/12 05:16:23;;;;;;;9.70;1.45;;;;;;;12.22;100.00;100395.38;7392261;19;20067;-91
2022/08/12 05:18:49;;;;;;;0.40;0.40;;;;;;;12.26;100.00;100390.44;7394259;19;20011;-90
2022/08/12 05:21:15;;;;;;;0.98;0.70;;;;;;;12.26;100.00;100401.59;7394133;19;20019;-91
2022/08/12 05:23:42;;;;;;;3.65;0.93;;;;;;;12.28;100.00;100399.84;7393860;19;20013;-90
2022/08/12 05:26:09;;;;;;;6.45;1.35;;;;;;;12.30;100.00;100394.56;7397480;19;20433;-91
2022/08/12 05:28:36;;;;;;;0.73;0.30;;;;;;;12.30;100.00;100402.19;7395670;19;20014;-90
2022/08/12 05:31:03;;;;;;;1.27;0.65;;;;;;;12.32;100.00;100410.88;7395425;19;20018;-90
2022/08/12 05:33:37;;;;;;;0.45;0.45;;;;;;;12.30;100.00;100416.16;7395432;19;20114;-91
2022/08/12 05:36:08;;;;;;;0.50;0.45;;;;;;;12.34;100.00;100419.53;7395645;19;20109;-90
2022/08/12 05:41:20;;;;;;;3.13;1.38;;;;;;;12.42;100.00;100409.56;7396685;19;20324;-91
2022/08/12 05:43:48;;;;;;;0.50;0.50;;;;;;;12.44;100.00;100409.84;7396353;19;20338;-89
2022/08/12 05:46:15;;;;;;;2.30;1.15;;;;;;;12.45;100.00;100414.19;7394388;19;20018;-87
2022/08/12 05:48:41;;;;;;;3.08;0.80;;;;;;;12.45;100.00;100420.53;7393613;19;20052;-87
2022/08/12 05:51:10;;;;;;;0.60;0.57;;;;;;;12.47;100.00;100414.50;7390918;19;20463;-85
2022/08/12 05:53:40;;;;;;;2.08;1.20;;;;;;;12.48;100.00;100414.03;7390846;19;20497;-86
2022/08/12 05:56:17;;;;;;;1.60;1.13;;;;;;;12.58;100.00;100409.16;7394471;19;20021;-86
2022/08/12 05:58:43;;;;;;;4.28;1.42;;;;;;;12.67;100.00;100415.44;7392429;19;20032;-86
2022/08/12 06:01:09;;;;;;;3.72;1.35;;;;;;;12.71;100.00;100415.28;7392862;19;20022;-86
2022/08/12 06:03:36;;;;;;;4.03;1.30;;;;;;;12.76;100.00;100412.59;7393541;19;20048;-86
2022/08/12 06:06:03;;;;;;;2.38;1.30;;;;;;;12.83;100.00;100433.81;7395452;19;20034;-86
2022/08/12 06:08:29;;;;;;;3.45;1.30;;;;;;;12.92;100.00;100422.56;7392411;19;20129;-86
2022/08/12 06:10:56;;;;;;;1.65;0.90;;;;;;;13.01;100.00;100424.50;7389207;19;20465;-86
2022/08/12 06:13:23;;;;;;;2.97;1.52;;;;;;;13.09;100.00;100423.69;7389847;19;20007;-86
2022/08/12 06:15:49;;;;;;;2.53;1.00;;;;;;;13.16;100.00;100423.34;7389194;19;20015;-85
2022/08/12 06:18:15;;;;;;;2.90;0.90;;;;;;;13.25;100.00;100420.47;7391997;19;20496;-86
2022/08/12 06:20:42;;;;;;;5.80;1.73;;;;;;;13.36;100.00;100426.22;7391417;19;20038;-85
2022/08/12 06:23:09;;;;;;;1.98;0.77;;;;;;;13.46;100.00;100427.72;7391946;19;20485;-86
2022/08/12 06:25:35;;;;;;;3.13;1.63;;;;;;;13.55;100.00;100422.03;7390837;19;20349;-86
2022/08/12 06:28:02;;;;;;;2.28;1.15;;;;;;;13.66;100.00;100419.41;7391898;19;20015;-87
2022/08/12 06:30:29;;;;;;;1.75;1.13;;;;;;;13.75;100.00;100424.16;7389247;19;20564;-86
2022/08/12 06:32:55;;;;;;;6.40;0.98;;;;;;;13.83;100.00;100418.91;7390490;19;20473;-87
2022/08/12 06:35:21;;;;;;;2.05;1.15;;;;;;;13.91;100.00;100420.06;7393180;19;20017;-86
2022/08/12 06:37:54;;;;;;;1.40;0.88;;;;;;;13.99;100.00;100415.63;7392678;19;20021;-86
2022/08/12 06:43:05;;;;;;;1.38;0.70;;;;;;;14.14;100.00;100416.38;7390605;19;20118;-86
2022/08/12 06:45:33;;;;;;;6.40;1.30;;;;;;;14.24;100.00;100421.34;7390043;19;20015;-88
2022/08/12 06:48:09;;;;;;;2.25;0.60;;;;;;;14.32;100.00;100418.94;7391362;19;20035;-88
2022/08/12 06:50:36;;;;;;;1.58;0.60;;;;;;;14.43;100.00;100419.88;7388550;19;20014;-89
2022/08/12 06:53:04;;;;;;;2.08;1.02;;;;;;;14.48;100.00;100421.22;7392284;19;20010;-89
2022/08/12 06:55:31;;;;;;;0.45;0.43;;;;;;;14.57;100.00;100418.28;7391659;19;20028;-89
2022/08/12 06:58:03;;;;;;;3.33;0.95;;;;;;;14.68;100.00;100415.63;7392723;19;20066;-89
2022/08/12 07:00:32;;;;;;;13.93;3.42;;;;;;;14.75;100.00;100415.19;7391169;19;20007;-89
2022/08/12 07:03:00;;;;;;;2.10;0.80;;;;;;;14.83;100.00;100416.34;7391812;19;20037;-89
2022/08/12 07:05:28;;;;;;;0.55;0.47;;;;;;;14.94;100.00;100416.44;7401393;19;20031;-89
2022/08/12 07:07:54;;;;;;;2.47;0.93;;;;;;;15.07;100.00;100422.47;7398255;19;20483;-90
2022/08/12 07:10:22;;;;;;;0.52;0.43;;;;;;;15.16;100.00;100422.31;7396015;19;20022;-89
2022/08/12 07:12:53;;;;;;;3.55;0.63;;;;;;;15.24;100.00;100416.28;7398319;19;20349;-88
2022/08/12 07:15:24;;;;;;;4.60;1.98;;;;;;;15.34;100.00;100414.84;7397713;19;20018;-89
2022/08/12 07:17:58;;;;;;;;;;;;;;;15.42;100.00;100416.72;7398205;19;20015;-90
2022/08/12 07:20:29;;;;;;;2.22;1.00;;;;;;;15.49;100.00;100421.16;7395765;19;19918;-89
2022/08/12 07:22:55;;;;;;;5.05;1.33;;;;;;;15.58;100.00;100416.16;7396261;19;20037;-89
2022/08/12 07:25:31;;;;;;;6.78;1.45;;;;;;;15.73;100.00;100418.81;7394564;19;20022;-89
2022/08/12 07:28:02;;;;;;;4.65;0.90;;;;;;;15.86;100.00;100413.56;7394056;19;20011;-90
2022/08/12 07:30:35;;;;;;;0.70;0.52;;;;;;;15.99;100.00;100418.78;7394593;19;20046;-89
2022/08/12 07:33:03;;;;;;;3.22;1.05;;;;;;;16.16;100.00;100414.03;7395945;19;20038;-89
2022/08/12 07:35:31;;;;;;;9.30;0.52;;;;;;;16.30;100.00;100411.09;7400302;19;20007;-89
2022/08/12 07:37:59;;;;;;;1.00;0.50;;;;;;;16.45;100.00;100399.69;7395593;19;20013;-89
2022/08/12 07:40:28;;;;;;;0.50;0.50;;;;;;;16.69;100.00;100408.53;7400368;19;20010;-89
2022/08/12 07:42:55;;;;;;;1.65;0.73;;;;;;;16.83;100.00;100413.19;7400436;19;20042;-89
2022/08/12 07:45:21;;;;;;;3.70;0.60;;;;;;;16.96;100.00;100409.91;7395287;19;20018;-88
2022/08/12 07:47:48;;;;;;;1.67;0.30;;;;;;;17.08;100.00;100408.69;7396415;19;20018;-88
2022/08/12 07:50:16;;;;;;;1.17;0.65;;;;;;;17.16;100.00;100402.06;7394365;19;20014;-88
2022/08/12 07:52:45;;;;;;;2.03;0.75;;;;;;;17.24;100.00;100402.31;7395276;19;20480;-88
2022/08/12 07:55:14;;;;;;;1.73;0.52;;;;;;;17.29;100.00;100398.75;7396876;19;20034;-88
2022/08/12 07:57:52;;;;;;;1.88;0.63;;;;;;;17.34;100.00;100395.97;7395581;19;20025;-87
2022/08/12 08:00:19;;;;;;;2.17;0.57;;;;;;;17.37;100.00;100403.38;7396601;19;20011;-89
2022/08/12 08:02:45;;;;;;;2.17;0.35;;;;;;;17.44;100.00;100399.28;7397315;19;20010;-90
2022/08/12 08:05:11;;;;;;;4.90;0.43;;;;;;;17.54;100.00;100403.44;7398864;19;20021;-89
2022/08/12 08:07:38;;;;;;;1.13;0.47;;;;;;;17.63;100.00;100403.19;7395795;19;20014;-89
2022/08/12 08:10:09;;;;;;;2.05;0.63;;;;;;;17.72;100.00;100405.75;7393846;19;20022;-89
2022/08/12 08:12:57;;;;;;;2.50;0.82;;;;;;;17.87;100.00;100403.44;7393246;19;20010;-89
2022/08/12 08:15:35;;;;;;;0.25;0.20;;;;;;;18.04;100.00;100400.63;7392096;19;20050;-88
2022/08/12 08:18:14;;;;;;;1.27;0.40;;;;;;;18.14;100.00;100399.06;7394047;19;20015;-87
2022/08/12 08:20:45;;;;;;;6.93;0.60;;;;;;;18.29;100.00;100391.09;7396176;19;20014;-88
2022/08/12 08:23:15;;;;;;;1.95;0.85;;;;;;;18.42;100.00;100393.38;7393489;19;20022;-83
2022/08/12 08:25:46;;;;;;;5.90;1.50;;;;;;;18.58;100.00;100395.41;7392219;19;20010;-86
2022/08/12 08:28:15;;;;;;;0.50;0.30;;;;;;;18.71;100.00;100393.56;7393668;19;20029;-86
2022/08/12 08:30:44;;;;;;;0.40;0.20;;;;;;;18.84;100.00;100388.13;7393696;19;20089;-86
2022/08/12 08:33:13;;;;;;;0.68;0.20;;;;;;;18.98;100.00;100380.63;7396077;19;20415;-86
2022/08/12 08:35:40;;;;;;;2.47;0.52;;;;;;;19.15;100.00;100383.34;7398579;19;20037;-86
2022/08/12 08:38:16;;;;;;;0.28;0.10;;;;;;;19.28;100.00;100381.47;7394240;19;20028;-88
2022/08/12 08:43:32;;;;;;;1.58;0.63;;;;;;;19.56;100.00;100370.00;7394090;19;20021;-88
2022/08/12 08:46:00;;;;;;;5.68;0.60;;;;;;;19.71;100.00;100369.66;7394342;19;20476;-88
2022/08/12 08:48:29;;;;;;;0.40;0.40;;;;;;;19.88;100.00;100364.63;7393746;19;20018;-87
2022/08/12 08:50:56;;;;;;;1.95;0.63;;;;;;;20.15;100.00;100366.41;7393782;19;20010;-88
2022/08/12 08:53:22;;;;;;;4.10;0.43;;;;;;;20.35;100.00;100369.56;7395130;19;20021;-88
2022/08/12 08:55:49;;;;;;;0.40;0.20;;;;;;;20.53;100.00;100362.41;7397682;19;20027;-88
2022/08/12 08:58:17;;;;;;;0.65;0.35;;;;;;;20.72;100.00;100368.09;7391736;19;20025;-89
2022/08/12 09:00:44;;;;;;;1.55;0.50;;;;;;;20.89;100.00;100355.25;7393186;19;20011;-89
2022/08/12 09:03:10;;;;;;;0.15;0.10;;;;;;;21.04;100.00;100366.94;7393581;19;20257;-90
2022/08/12 09:05:37;;;;;;;0.38;0.10;;;;;;;21.19;100.00;100360.78;7397152;19;20014;-89
2022/08/12 09:08:04;;;;;;;0.75;0.10;;;;;;;21.34;100.00;100357.47;7394993;19;20018;-89
2022/08/12 09:10:32;;;;;;;4.55;0.30;;;;;;;21.49;100.00;100343.59;7392660;19;20011;-90
2022/08/12 09:15:45;;;;;;;2.28;0.77;;;;;;;21.83;100.00;100344.59;7392853;19;20034;-87
2022/08/12 09:18:12;;;;;;;0.90;0.10;;;;;;;22.08;100.00;100343.13;7390424;19;20499;-83
2022/08/12 09:20:39;;;;;;;1.23;0.20;;;;;;;22.25;100.00;100345.63;7392621;19;20018;-83
2022/08/12 09:23:09;;;;;;;8.57;0.63;;;;;;;22.30;100.00;100339.09;7393070;19;20022;-84
2022/08/12 09:25:40;;;;;;;0.40;0.22;;;;;;;22.44;100.00;100346.28;7391758;19;20025;-84
2022/08/12 09:28:09;;;;;;;;;;;;;;;22.59;100.00;100335.94;7391803;19;20025;-83
2022/08/12 09:30:52;;;;;;;0.90;0.10;;;;;;;22.81;100.00;100340.38;7388975;19;19918;-84
2022/08/12 09:33:18;;;;;;;0.25;0.00;;;;;;;23.07;100.00;100339.56;7390229;19;20033;-84
2022/08/12 09:35:45;;;;;;;1.27;0.10;;;;;;;23.21;100.00;100343.91;7394457;19;20017;-84
2022/08/12 09:38:18;;;;;;;3.70;0.17;;;;;;;23.36;100.00;100338.41;7393598;19;20014;-86
2022/08/12 09:40:45;;;;;;;0.63;0.30;;;;;;;23.54;100.00;100337.44;7389869;19;20368;-85
2022/08/12 09:45:59;;;;;;;2.83;0.10;;;;;;;23.93;100.00;100339.31;7392313;19;20098;-88
2022/08/12 09:48:25;;;;;;;0.30;0.10;;;;;;;24.14;100.00;100337.22;7393043;19;20014;-88
2022/08/12 09:50:52;;;;;;;2.53;0.20;;;;;;;24.24;100.00;100338.22;7389319;19;20006;-87
2022/08/12 09:53:23;;;;;;;0.32;0.10;;;;;;;24.32;100.00;100335.44;7390031;19;20011;-88
2022/08/12 09:55:52;;;;;;;1.30;0.00;;;;;;;24.44;100.00;100340.25;7393470;19;20951;-88
2022/08/12 09:58:27;;;;;;;0.35;0.10;;;;;;;24.64;100.00;100338.66;7392096;19;20465;-88
2022/08/12 10:01:03;;;;;;;0.47;0.10;;;;;;;24.83;100.00;100339.16;7392918;19;20046;-88
2022/08/12 10:03:36;;;;;;;0.55;0.30;;;;;;;24.89;100.00;100336.88;7392326;19;20487;-88
2022/08/12 10:06:05;;;;;;;1.48;0.10;;;;;;;24.99;100.00;100329.34;7391112;19;20308;-85
2022/08/12 10:08:34;;;;;;;0.17;0.08;;;;;;;25.09;100.00;100330.31;7391178;19;20014;-87
2022/08/12 10:13:49;;;;;;;6.75;0.20;;;;;;;25.31;100.00;100326.78;7393055;19;20078;-87
2022/08/12 10:16:21;;;;;;;0.70;0.00;;;;;;;25.40;100.00;100323.34;7390845;19;20342;-88
2022/08/12 10:19:02;;;;;;;2.17;0.28;;;;;;;25.55;100.00;100323.38;7392138;19;20015;-85
2022/08/12 10:21:30;;;;;;;;;;;;;;;25.71;100.00;100329.88;7390451;19;20335;-87
2022/08/12 10:23:56;;;;;;;0.28;0.10;;;;;;;25.91;100.00;100331.78;7389729;19;19927;-87
2022/08/12 10:31:56;;;;;;;1.35;0.43;;;;;;;26.22;100.00;100315.41;7390445;19;20022;-88
2022/08/12 10:34:24;;;;;;;1.20;0.32;;;;;;;26.28;100.00;100310.25;7389885;19;20026;-88
2022/08/12 10:36:57;;;;;;;0.10;0.00;;;;;;;26.39;100.00;100306.22;7389309;19;20018;-89
2022/08/12 10:39:34;;;;;;;1.08;0.30;;;;;;;26.47;100.00;100301.25;7397744;19;20014;-88
2022/08/12 10:44:46;;;;;;;0.82;0.10;;;;;;;26.72;100.00;100299.28;7395214;19;20041;-89
2022/08/12 10:47:15;;;;;;;0.45;0.10;;;;;;;26.79;100.00;100299.25;7396489;19;20031;-88
2022/08/12 10:49:45;;;;;;;0.32;0.00;;;;;;;26.85;100.00;100296.19;7399566;19;20018;-87
2022/08/12 10:52:11;;;;;;;1.40;0.32;;;;;;;26.99;100.00;100295.34;7396054;19;20026;-88
2022/08/12 10:54:40;;;;;;;0.57;0.10;;;;;;;27.02;100.00;100284.84;7394311;19;20010;-87
2022/08/12 10:57:06;;;;;;;0.20;0.00;;;;;;;27.04;100.00;100285.81;7394134;19;20418;-88
2022/08/12 10:59:33;;;;;;;2.17;0.20;;;;;;;27.12;100.00;100285.75;7397105;19;20018;-88
2022/08/12 11:02:00;;;;;;;1.08;0.35;;;;;;;27.29;100.00;100285.09;7396951;19;20014;-87
2022/08/12 11:04:29;;;;;;;0.40;0.10;;;;;;;27.38;99.01;100281.59;7398043;19;20010;-87
2022/08/12 11:06:56;;;;;;;1.08;0.20;;;;;;;27.39;95.44;100275.31;7397188;19;20120;-87
2022/08/12 11:09:30;;;;;;;0.10;0.00;;;;;;;27.41;100.00;100277.56;7396848;19;20098;-86
2022/08/12 11:11:58;;;;;;;1.20;0.10;;;;;;;27.49;100.00;100270.44;7393700;19;20020;-88
2022/08/12 11:14:30;;;;;;;0.35;0.10;;;;;;;27.49;100.00;100278.28;7393813;19;20074;-88
2022/08/12 11:17:01;;;;;;;0.43;0.13;;;;;;;27.54;100.00;100274.41;7393802;19;20468;-88
2022/08/12 11:19:28;;;;;;;0.22;0.00;;;;;;;27.61;93.37;100265.75;7399645;19;20385;-92
2022/08/12 11:21:55;;;;;;;0.15;0.05;;;;;;;27.69;96.54;100274.28;7398375;19;20024;-91
2022/08/12 11:24:23;;;;;;;0.80;0.20;;;;;;;27.75;99.91;100271.94;7396179;19;20007;-91
2022/08/12 11:26:51;;;;;;;1.67;0.52;;;;;;;27.83;93.69;100266.91;7397235;19;20014;-94
2022/08/12 11:29:19;;;;;;;0.77;0.05;;;;;;;27.84;94.71;100262.72;7398802;19;20366;-92
2022/08/12 11:31:45;;;;;;;0.65;0.17;;;;;;;27.94;94.86;100272.16;7396272;19;20039;-93
2022/08/12 11:34:12;;;;;;;0.60;0.10;;;;;;;28.05;93.53;100260.22;7396902;19;20015;-92
2022/08/12 11:36:47;;;;;;;5.13;0.28;;;;;;;28.12;100.00;100259.41;7395097;19;20014;-92
2022/08/12 11:39:14;;;;;;;1.73;0.10;;;;;;;28.19;89.38;100249.97;7399988;19;20017;-92
2022/08/12 11:41:40;;;;;;;3.35;0.20;;;;;;;28.25;95.67;100250.47;7394901;19;20038;-87
2022/08/12 11:44:06;;;;;;;3.85;0.15;;;;;;;28.23;96.92;100250.31;7395319;19;20011;-86
2022/08/12 11:46:36;;;;;;;0.30;0.10;;;;;;;28.28;96.80;100246.44;7395309;19;20018;-86
2022/08/12 11:49:03;;;;;;;0.43;0.22;;;;;;;28.32;99.83;100248.88;7395957;19;20042;-86
2022/08/12 11:51:30;;;;;;;1.02;0.20;;;;;;;28.36;98.23;100249.19;7392427;19;20349;-87
2022/08/12 11:53:57;;;;;;;0.82;0.10;;;;;;;28.35;89.19;100239.09;7393449;19;20011;-85
2022/08/12 11:56:23;;;;;;;1.05;0.10;;;;;;;28.40;89.88;100246.66;7393180;19;20094;-86
2022/08/12 11:58:49;;;;;;;2.92;0.70;;;;;;;28.46;96.55;100232.84;7396469;19;20021;-86
2022/08/12 12:01:16;;;;;;;1.23;0.40;;;;;;;28.56;96.86;100241.50;7395620;19;20014;-86
2022/08/12 12:03:42;;;;;;;1.00;0.10;;;;;;;28.65;88.80;100235.13;7395652;19;20472;-87
2022/08/12 12:06:08;;;;;;;2.92;0.15;;;;;;;28.68;88.38;100225.31;7395886;19;20055;-86
2022/08/12 12:08:35;;;;;;;1.23;0.25;;;;;;;28.71;89.69;100221.28;7396506;19;20029;-86
2022/08/12 12:11:02;;;;;;;0.10;0.00;;;;;;;28.63;86.56;100221.38;7392604;19;20383;-86
2022/08/12 12:13:28;;;;;;;0.70;0.15;;;;;;;28.70;88.85;100219.75;7394575;19;20018;-86
2022/08/12 12:15:54;;;;;;;0.80;0.15;;;;;;;28.83;82.07;100219.38;7395072;19;20346;-86
2022/08/12 12:18:30;;;;;;;0.73;0.10;;;;;;;28.94;85.61;100215.97;7396760;19;20027;-85
2022/08/12 12:21:02;;;;;;;5.25;0.10;;;;;;;28.99;84.90;100223.56;7395337;19;20066;-86
2022/08/12 12:23:29;;;;;;;0.10;0.00;;;;;;;29.03;83.06;100218.13;7394096;19;20018;-86
2022/08/12 12:25:55;;;;;;;0.98;0.10;;;;;;;29.08;81.51;100219.97;7392797;19;20054;-86
2022/08/12 12:28:22;;;;;;;2.65;0.00;;;;;;;29.08;83.36;100202.75;7395885;19;20022;-87
2022/08/12 12:30:48;;;;;;;2.58;0.10;;;;;;;29.10;79.95;100206.56;7392848;19;20074;-88
2022/08/12 12:33:14;;;;;;;0.40;0.00;;;;;;;29.08;87.91;100203.53;7393734;19;20010;-85
2022/08/12 12:35:41;;;;;;;1.05;0.20;;;;;;;29.11;90.33;100201.56;7399213;19;20595;-84
2022/08/12 12:38:09;;;;;;;0.15;0.00;;;;;;;29.16;78.71;100192.72;7395823;19;20170;-78
2022/08/12 12:40:37;;;;;;;0.30;0.00;;;;;;;29.21;84.70;100205.28;7391028;19;20011;-77
2022/08/12 12:43:04;;;;;;;0.40;0.00;;;;;;;29.23;81.22;100196.81;7390947;19;20400;-78
2022/08/12 12:45:32;;;;;;;0.20;0.00;;;;;;;29.22;80.13;100201.03;7391316;19;20022;-76
2022/08/12 12:48:06;;;;;;;0.90;0.00;;;;;;;29.25;76.45;100185.50;7391381;19;20019;-79
2022/08/12 12:50:37;;;;;;;0.95;0.10;;;;;;;29.32;79.14;100187.50;7387555;19;20105;-82
2022/08/12 12:53:07;;;;;;;0.88;0.10;;;;;;;29.39;80.48;100185.84;7394800;19;20031;-79
2022/08/12 12:55:36;;;;;;;0.35;0.05;;;;;;;29.45;79.34;100175.59;7392546;19;20232;-91
2022/08/12 12:58:15;;;;;;;2.42;0.20;;;;;;;29.44;74.43;100171.19;7392277;19;20015;-80
2022/08/12 13:00:43;;;;;;;0.45;0.20;;;;;;;29.49;78.78;100173.03;7393591;19;20023;-80
2022/08/12 13:03:18;;;;;;;0.40;0.30;;;;;;;29.58;77.91;100168.66;7393746;19;20025;-77
2022/08/12 13:05:44;;;;;;;1.75;0.20;;;;;;;29.64;78.36;100161.28;7395224;19;20035;-77
2022/08/12 13:08:25;;;;;;;1.23;0.20;;;;;;;29.69;80.08;100163.06;7390895;19;20017;-80
2022/08/12 13:10:53;;;;;;;0.57;0.10;;;;;;;29.63;78.78;100168.38;7389636;19;20014;-81
2022/08/12 13:13:20;;;;;;;0.57;0.20;;;;;;;29.61;79.86;100165.34;7390377;19;20520;-82
2022/08/12 13:15:49;;;;;;;1.48;0.30;;;;;;;29.66;80.79;100158.56;7390871;19;20089;-80
2022/08/12 13:18:16;;;;;;;1.15;0.10;;;;;;;29.70;76.18;100158.84;7389823;19;20034;-81
2022/08/12 13:20:46;;;;;;;0.75;0.22;;;;;;;29.67;81.29;100153.56;7390365;19;20089;-83